KCEY/CEY METAR and TAF weather

Enter ICAO airport designator
Station Type Date Time Source
KCEY METAR 2022/06/29 01:15 UTC NOAA

KCEY 290115Z AUTO 01004KT 10SM CLR 21/10 A3018 RMK AO1


Station Type Date Time Source
KCEY Decoded METAR 2022/06/29 01:15 UTC NOAA

Station name not available
Jun 28, 2022 - 09:15 PM EDT / 2022.06.29 0115 UTC
Wind: from the N (010 degrees) at 5 MPH (4 KT):0
Visibility: 10 mile(s):0
Sky conditions: clear
Temperature: 69 F (21 C)
Dew Point: 50 F (10 C)
Relative Humidity: 49%
Pressure (altimeter): 30.18 in. Hg (1022 hPa)
ob: KCEY 290115Z AUTO 01004KT 10SM CLR 21/10 A3018 RMK AO1
cycle: 1

Station Type Date Time Source
KCEY TAF UTC NOAA

Error!

Example: see airport list